sensor_id;sensor_type;location;lat;lon;timestamp;P1;durP1;ratioP1;P2;durP2;ratioP2
13463;SDS011;6804;48.774;9.174;2024-02-21T00:00:20;5.63;;;3.10;;
13463;SDS011;6804;48.774;9.174;2024-02-21T00:02:58;9.10;;;3.53;;
13463;SDS011;6804;48.774;9.174;2024-02-21T00:05:27;6.17;;;3.03;;
13463;SDS011;6804;48.774;9.174;2024-02-21T00:07:54;10.80;;;3.70;;
13463;SDS011;6804;48.774;9.174;2024-02-21T00:10:22;7.20;;;3.30;;
13463;SDS011;6804;48.774;9.174;2024-02-21T00:12:54;10.07;;;3.67;;
13463;SDS011;6804;48.774;9.174;2024-02-21T00:15:26;4.67;;;3.07;;
13463;SDS011;6804;48.774;9.174;2024-02-21T00:17:55;8.50;;;3.30;;
13463;SDS011;6804;48.774;9.174;2024-02-21T00:20:27;7.37;;;3.53;;
13463;SDS011;6804;48.774;9.174;2024-02-21T00:22:55;6.23;;;2.60;;
13463;SDS011;6804;48.774;9.174;2024-02-21T00:25:23;8.13;;;2.80;;
13463;SDS011;6804;48.774;9.174;2024-02-21T00:27:56;5.47;;;3.27;;
13463;SDS011;6804;48.774;9.174;2024-02-21T00:30:27;7.77;;;3.30;;
13463;SDS011;6804;48.774;9.174;2024-02-21T00:32:54;8.23;;;3.50;;
13463;SDS011;6804;48.774;9.174;2024-02-21T00:35:21;6.03;;;3.33;;
13463;SDS011;6804;48.774;9.174;2024-02-21T00:37:51;5.87;;;3.23;;
13463;SDS011;6804;48.774;9.174;2024-02-21T00:40:19;7.07;;;3.10;;
13463;SDS011;6804;48.774;9.174;2024-02-21T00:42:47;7.07;;;3.10;;
13463;SDS011;6804;48.774;9.174;2024-02-21T00:45:14;8.53;;;3.07;;
13463;SDS011;6804;48.774;9.174;2024-02-21T00:47:42;7.40;;;3.10;;
13463;SDS011;6804;48.774;9.174;2024-02-21T00:50:11;8.33;;;2.87;;
13463;SDS011;6804;48.774;9.174;2024-02-21T00:52:43;6.23;;;3.30;;
13463;SDS011;6804;48.774;9.174;2024-02-21T00:55:16;9.03;;;2.73;;
13463;SDS011;6804;48.774;9.174;2024-02-21T00:57:44;6.17;;;2.70;;
13463;SDS011;6804;48.774;9.174;2024-02-21T01:00:13;9.47;;;3.30;;
13463;SDS011;6804;48.774;9.174;2024-02-21T01:02:43;6.63;;;2.33;;
13463;SDS011;6804;48.774;9.174;2024-02-21T01:05:14;4.40;;;3.23;;
13463;SDS011;6804;48.774;9.174;2024-02-21T01:07:43;7.70;;;2.70;;
13463;SDS011;6804;48.774;9.174;2024-02-21T01:10:11;9.17;;;2.90;;
13463;SDS011;6804;48.774;9.174;2024-02-21T01:12:42;6.27;;;2.53;;
13463;SDS011;6804;48.774;9.174;2024-02-21T01:15:11;7.43;;;2.80;;
13463;SDS011;6804;48.774;9.174;2024-02-21T01:17:39;5.47;;;2.93;;
13463;SDS011;6804;48.774;9.174;2024-02-21T01:20:07;4.20;;;2.60;;
13463;SDS011;6804;48.774;9.174;2024-02-21T01:22:35;5.87;;;2.57;;
13463;SDS011;6804;48.774;9.174;2024-02-21T01:25:08;6.00;;;2.43;;
13463;SDS011;6804;48.774;9.174;2024-02-21T01:27:38;6.23;;;2.83;;
13463;SDS011;6804;48.774;9.174;2024-02-21T01:30:06;9.63;;;2.97;;
13463;SDS011;6804;48.774;9.174;2024-02-21T01:32:35;5.80;;;2.50;;
13463;SDS011;6804;48.774;9.174;2024-02-21T01:35:03;8.47;;;2.77;;
13463;SDS011;6804;48.774;9.174;2024-02-21T01:37:34;4.43;;;2.23;;
13463;SDS011;6804;48.774;9.174;2024-02-21T01:40:05;10.80;;;2.57;;
13463;SDS011;6804;48.774;9.174;2024-02-21T01:42:37;5.73;;;2.70;;
13463;SDS011;6804;48.774;9.174;2024-02-21T01:45:08;8.20;;;2.80;;
13463;SDS011;6804;48.774;9.174;2024-02-21T01:47:36;4.37;;;2.10;;
13463;SDS011;6804;48.774;9.174;2024-02-21T01:50:04;7.93;;;2.70;;
13463;SDS011;6804;48.774;9.174;2024-02-21T01:52:36;6.77;;;2.60;;
13463;SDS011;6804;48.774;9.174;2024-02-21T01:55:04;5.03;;;2.43;;
13463;SDS011;6804;48.774;9.174;2024-02-21T01:57:39;4.63;;;2.43;;
13463;SDS011;6804;48.774;9.174;2024-02-21T02:00:07;7.90;;;2.60;;
13463;SDS011;6804;48.774;9.174;2024-02-21T02:02:38;9.70;;;2.83;;
13463;SDS011;6804;48.774;9.174;2024-02-21T02:05:09;6.97;;;2.97;;
13463;SDS011;6804;48.774;9.174;2024-02-21T02:07:39;4.87;;;2.40;;
13463;SDS011;6804;48.774;9.174;2024-02-21T02:10:07;6.40;;;2.77;;
13463;SDS011;6804;48.774;9.174;2024-02-21T02:12:36;6.27;;;2.50;;
13463;SDS011;6804;48.774;9.174;2024-02-21T02:15:03;5.43;;;2.60;;
13463;SDS011;6804;48.774;9.174;2024-02-21T02:17:34;5.23;;;2.30;;
13463;SDS011;6804;48.774;9.174;2024-02-21T02:20:04;4.47;;;2.37;;
13463;SDS011;6804;48.774;9.174;2024-02-21T02:22:33;6.43;;;2.33;;
13463;SDS011;6804;48.774;9.174;2024-02-21T02:25:05;5.33;;;2.87;;
13463;SDS011;6804;48.774;9.174;2024-02-21T02:27:41;4.60;;;2.40;;
13463;SDS011;6804;48.774;9.174;2024-02-21T02:30:10;7.30;;;2.60;;
13463;SDS011;6804;48.774;9.174;2024-02-21T02:32:38;6.97;;;2.10;;
13463;SDS011;6804;48.774;9.174;2024-02-21T02:35:05;6.30;;;2.40;;
13463;SDS011;6804;48.774;9.174;2024-02-21T02:37:39;4.30;;;2.60;;
13463;SDS011;6804;48.774;9.174;2024-02-21T02:40:08;6.67;;;2.60;;
13463;SDS011;6804;48.774;9.174;2024-02-21T02:42:40;4.87;;;2.10;;
13463;SDS011;6804;48.774;9.174;2024-02-21T02:45:09;6.63;;;2.10;;
13463;SDS011;6804;48.774;9.174;2024-02-21T02:47:36;7.17;;;2.70;;
13463;SDS011;6804;48.774;9.174;2024-02-21T02:50:06;5.30;;;2.80;;
13463;SDS011;6804;48.774;9.174;2024-02-21T02:52:40;6.60;;;2.63;;
13463;SDS011;6804;48.774;9.174;2024-02-21T02:55:11;4.77;;;2.17;;
13463;SDS011;6804;48.774;9.174;2024-02-21T02:57:40;8.10;;;2.87;;
13463;SDS011;6804;48.774;9.174;2024-02-21T03:00:11;4.87;;;2.23;;
13463;SDS011;6804;48.774;9.174;2024-02-21T03:02:40;3.87;;;2.03;;
13463;SDS011;6804;48.774;9.174;2024-02-21T03:05:12;7.57;;;2.73;;
13463;SDS011;6804;48.774;9.174;2024-02-21T03:07:40;6.40;;;2.73;;
13463;SDS011;6804;48.774;9.174;2024-02-21T03:10:08;5.83;;;2.50;;
13463;SDS011;6804;48.774;9.174;2024-02-21T03:12:42;8.77;;;2.63;;
13463;SDS011;6804;48.774;9.174;2024-02-21T03:15:09;5.90;;;2.67;;
13463;SDS011;6804;48.774;9.174;2024-02-21T03:17:37;5.63;;;2.10;;
13463;SDS011;6804;48.774;9.174;2024-02-21T03:20:05;5.90;;;2.47;;
13463;SDS011;6804;48.774;9.174;2024-02-21T03:22:36;5.97;;;2.47;;
13463;SDS011;6804;48.774;9.174;2024-02-21T03:25:07;4.90;;;2.60;;
13463;SDS011;6804;48.774;9.174;2024-02-21T03:27:42;6.33;;;2.80;;
13463;SDS011;6804;48.774;9.174;2024-02-21T03:30:09;6.50;;;2.10;;
13463;SDS011;6804;48.774;9.174;2024-02-21T03:32:39;4.17;;;2.37;;
13463;SDS011;6804;48.774;9.174;2024-02-21T03:35:06;5.77;;;2.60;;
13463;SDS011;6804;48.774;9.174;2024-02-21T03:37:34;6.83;;;2.40;;
13463;SDS011;6804;48.774;9.174;2024-02-21T03:40:01;6.37;;;2.37;;
13463;SDS011;6804;48.774;9.174;2024-02-21T03:42:30;5.10;;;2.40;;
13463;SDS011;6804;48.774;9.174;2024-02-21T03:45:01;7.60;;;2.73;;
13463;SDS011;6804;48.774;9.174;2024-02-21T03:47:29;7.13;;;2.30;;
13463;SDS011;6804;48.774;9.174;2024-02-21T03:49:56;6.70;;;2.70;;
13463;SDS011;6804;48.774;9.174;2024-02-21T03:52:24;7.93;;;2.67;;
13463;SDS011;6804;48.774;9.174;2024-02-21T03:54:52;6.43;;;2.60;;
13463;SDS011;6804;48.774;9.174;2024-02-21T03:57:23;9.50;;;3.67;;
13463;SDS011;6804;48.774;9.174;2024-02-21T03:59:53;8.97;;;2.67;;
13463;SDS011;6804;48.774;9.174;2024-02-21T04:02:24;6.27;;;2.10;;
13463;SDS011;6804;48.774;9.174;2024-02-21T04:04:51;6.03;;;2.50;;
13463;SDS011;6804;48.774;9.174;2024-02-21T04:07:18;4.03;;;2.27;;
13463;SDS011;6804;48.774;9.174;2024-02-21T04:09:46;4.93;;;2.20;;
13463;SDS011;6804;48.774;9.174;2024-02-21T04:12:13;5.23;;;2.47;;
13463;SDS011;6804;48.774;9.174;2024-02-21T04:14:42;5.63;;;2.30;;
13463;SDS011;6804;48.774;9.174;2024-02-21T04:17:09;7.67;;;2.53;;
13463;SDS011;6804;48.774;9.174;2024-02-21T04:19:38;6.00;;;2.70;;
13463;SDS011;6804;48.774;9.174;2024-02-21T04:22:08;5.93;;;2.47;;
13463;SDS011;6804;48.774;9.174;2024-02-21T04:24:38;4.63;;;2.17;;
13463;SDS011;6804;48.774;9.174;2024-02-21T04:27:06;4.83;;;1.97;;
13463;SDS011;6804;48.774;9.174;2024-02-21T04:29:34;5.20;;;1.93;;
13463;SDS011;6804;48.774;9.174;2024-02-21T04:32:01;5.50;;;2.53;;
13463;SDS011;6804;48.774;9.174;2024-02-21T04:34:30;3.90;;;2.10;;
13463;SDS011;6804;48.774;9.174;2024-02-21T04:36:59;5.33;;;2.53;;
13463;SDS011;6804;48.774;9.174;2024-02-21T04:39:27;5.00;;;2.67;;
13463;SDS011;6804;48.774;9.174;2024-02-21T04:42:00;6.33;;;2.37;;
13463;SDS011;6804;48.774;9.174;2024-02-21T04:44:28;7.37;;;2.30;;
13463;SDS011;6804;48.774;9.174;2024-02-21T04:46:59;4.60;;;2.03;;
13463;SDS011;6804;48.774;9.174;2024-02-21T04:49:26;6.77;;;2.40;;
13463;SDS011;6804;48.774;9.174;2024-02-21T04:51:55;4.50;;;2.00;;
13463;SDS011;6804;48.774;9.174;2024-02-21T04:54:24;4.87;;;2.17;;
13463;SDS011;6804;48.774;9.174;2024-02-21T04:56:53;6.47;;;2.10;;
13463;SDS011;6804;48.774;9.174;2024-02-21T04:59:20;6.30;;;2.00;;
13463;SDS011;6804;48.774;9.174;2024-02-21T05:01:48;5.90;;;2.20;;
13463;SDS011;6804;48.774;9.174;2024-02-21T05:04:17;6.50;;;2.73;;
13463;SDS011;6804;48.774;9.174;2024-02-21T05:06:45;3.83;;;2.17;;
13463;SDS011;6804;48.774;9.174;2024-02-21T05:09:15;7.13;;;2.23;;
13463;SDS011;6804;48.774;9.174;2024-02-21T05:11:46;3.33;;;2.00;;
13463;SDS011;6804;48.774;9.174;2024-02-21T05:14:15;5.40;;;2.20;;
13463;SDS011;6804;48.774;9.174;2024-02-21T05:16:45;4.50;;;2.13;;
13463;SDS011;6804;48.774;9.174;2024-02-21T05:19:12;3.40;;;1.90;;
13463;SDS011;6804;48.774;9.174;2024-02-21T05:21:39;5.83;;;2.43;;
13463;SDS011;6804;48.774;9.174;2024-02-21T05:24:08;5.33;;;2.30;;
13463;SDS011;6804;48.774;9.174;2024-02-21T05:26:44;4.33;;;2.33;;
13463;SDS011;6804;48.774;9.174;2024-02-21T05:29:12;5.07;;;2.30;;
13463;SDS011;6804;48.774;9.174;2024-02-21T05:31:54;5.27;;;2.40;;
13463;SDS011;6804;48.774;9.174;2024-02-21T05:34:22;4.63;;;2.33;;
13463;SDS011;6804;48.774;9.174;2024-02-21T05:36:52;5.53;;;2.30;;
13463;SDS011;6804;48.774;9.174;2024-02-21T05:39:20;4.37;;;2.00;;
13463;SDS011;6804;48.774;9.174;2024-02-21T05:41:53;3.60;;;2.00;;
13463;SDS011;6804;48.774;9.174;2024-02-21T05:44:22;6.37;;;2.07;;
13463;SDS011;6804;48.774;9.174;2024-02-21T05:46:49;6.60;;;2.30;;
13463;SDS011;6804;48.774;9.174;2024-02-21T05:49:23;3.50;;;2.00;;
13463;SDS011;6804;48.774;9.174;2024-02-21T05:51:50;5.63;;;2.00;;
13463;SDS011;6804;48.774;9.174;2024-02-21T05:54:20;5.70;;;2.10;;
13463;SDS011;6804;48.774;9.174;2024-02-21T05:56:51;4.57;;;1.80;;
13463;SDS011;6804;48.774;9.174;2024-02-21T05:59:23;6.37;;;2.23;;
13463;SDS011;6804;48.774;9.174;2024-02-21T06:01:55;2.70;;;1.80;;
13463;SDS011;6804;48.774;9.174;2024-02-21T06:04:23;3.97;;;2.20;;
13463;SDS011;6804;48.774;9.174;2024-02-21T06:06:51;2.70;;;2.13;;
13463;SDS011;6804;48.774;9.174;2024-02-21T06:09:18;6.73;;;2.47;;
13463;SDS011;6804;48.774;9.174;2024-02-21T06:11:46;4.97;;;1.77;;
13463;SDS011;6804;48.774;9.174;2024-02-21T06:14:14;7.27;;;2.13;;
13463;SDS011;6804;48.774;9.174;2024-02-21T06:16:44;4.53;;;1.93;;
13463;SDS011;6804;48.774;9.174;2024-02-21T06:19:12;4.20;;;2.30;;
13463;SDS011;6804;48.774;9.174;2024-02-21T06:21:41;5.70;;;1.90;;
13463;SDS011;6804;48.774;9.174;2024-02-21T06:24:09;6.37;;;2.23;;
13463;SDS011;6804;48.774;9.174;2024-02-21T06:26:44;4.47;;;2.10;;
13463;SDS011;6804;48.774;9.174;2024-02-21T06:29:14;6.83;;;2.40;;
13463;SDS011;6804;48.774;9.174;2024-02-21T06:31:42;5.13;;;1.97;;
13463;SDS011;6804;48.774;9.174;2024-02-21T06:34:13;4.80;;;2.10;;
13463;SDS011;6804;48.774;9.174;2024-02-21T06:36:46;5.90;;;2.17;;
13463;SDS011;6804;48.774;9.174;2024-02-21T06:39:16;6.07;;;1.83;;
13463;SDS011;6804;48.774;9.174;2024-02-21T06:41:46;4.23;;;2.30;;
13463;SDS011;6804;48.774;9.174;2024-02-21T06:44:18;4.43;;;2.33;;
13463;SDS011;6804;48.774;9.174;2024-02-21T06:46:47;4.60;;;2.00;;
13463;SDS011;6804;48.774;9.174;2024-02-21T06:49:14;5.77;;;2.30;;
13463;SDS011;6804;48.774;9.174;2024-02-21T06:51:45;4.30;;;2.40;;
13463;SDS011;6804;48.774;9.174;2024-02-21T06:54:12;4.60;;;2.20;;
13463;SDS011;6804;48.774;9.174;2024-02-21T06:56:41;6.43;;;2.03;;
13463;SDS011;6804;48.774;9.174;2024-02-21T06:59:08;4.97;;;2.50;;
13463;SDS011;6804;48.774;9.174;2024-02-21T07:01:36;5.30;;;2.10;;
13463;SDS011;6804;48.774;9.174;2024-02-21T07:04:07;4.40;;;2.20;;
13463;SDS011;6804;48.774;9.174;2024-02-21T07:06:34;6.20;;;2.27;;
13463;SDS011;6804;48.774;9.174;2024-02-21T07:09:04;4.57;;;2.03;;
13463;SDS011;6804;48.774;9.174;2024-02-21T07:11:31;5.37;;;2.67;;
13463;SDS011;6804;48.774;9.174;2024-02-21T07:14:05;3.53;;;2.10;;
13463;SDS011;6804;48.774;9.174;2024-02-21T07:16:32;4.10;;;2.00;;
13463;SDS011;6804;48.774;9.174;2024-02-21T07:19:03;5.30;;;2.23;;
13463;SDS011;6804;48.774;9.174;2024-02-21T07:21:34;5.47;;;2.50;;
13463;SDS011;6804;48.774;9.174;2024-02-21T07:24:06;5.37;;;1.90;;
13463;SDS011;6804;48.774;9.174;2024-02-21T07:26:34;6.10;;;2.20;;
13463;SDS011;6804;48.774;9.174;2024-02-21T07:29:09;3.33;;;2.07;;
13463;SDS011;6804;48.774;9.174;2024-02-21T07:31:40;6.80;;;2.03;;
13463;SDS011;6804;48.774;9.174;2024-02-21T07:34:09;7.13;;;2.03;;
13463;SDS011;6804;48.774;9.174;2024-02-21T07:36:36;4.97;;;2.30;;
13463;SDS011;6804;48.774;9.174;2024-02-21T07:39:10;4.53;;;2.17;;
13463;SDS011;6804;48.774;9.174;2024-02-21T07:41:40;6.40;;;2.33;;
13463;SDS011;6804;48.774;9.174;2024-02-21T07:44:10;4.53;;;2.40;;
13463;SDS011;6804;48.774;9.174;2024-02-21T07:46:37;4.03;;;2.10;;
13463;SDS011;6804;48.774;9.174;2024-02-21T07:49:04;5.00;;;2.23;;
13463;SDS011;6804;48.774;9.174;2024-02-21T07:51:36;5.60;;;2.10;;
13463;SDS011;6804;48.774;9.174;2024-02-21T07:54:10;3.73;;;1.73;;
13463;SDS011;6804;48.774;9.174;2024-02-21T07:56:38;6.47;;;2.17;;
13463;SDS011;6804;48.774;9.174;2024-02-21T07:59:05;5.93;;;2.50;;
13463;SDS011;6804;48.774;9.174;2024-02-21T08:01:34;4.43;;;1.97;;
13463;SDS011;6804;48.774;9.174;2024-02-21T08:04:04;7.17;;;1.97;;
13463;SDS011;6804;48.774;9.174;2024-02-21T08:06:32;4.93;;;2.00;;
13463;SDS011;6804;48.774;9.174;2024-02-21T08:09:01;3.87;;;2.00;;
13463;SDS011;6804;48.774;9.174;2024-02-21T08:11:28;4.57;;;2.10;;
13463;SDS011;6804;48.774;9.174;2024-02-21T08:13:55;4.83;;;1.73;;
13463;SDS011;6804;48.774;9.174;2024-02-21T08:16:28;5.47;;;2.40;;
13463;SDS011;6804;48.774;9.174;2024-02-21T08:18:55;6.07;;;2.50;;
13463;SDS011;6804;48.774;9.174;2024-02-21T08:21:25;10.17;;;2.70;;
13463;SDS011;6804;48.774;9.174;2024-02-21T08:23:54;4.97;;;2.10;;
13463;SDS011;6804;48.774;9.174;2024-02-21T08:26:32;5.87;;;2.30;;
13463;SDS011;6804;48.774;9.174;2024-02-21T08:29:02;4.30;;;2.20;;
13463;SDS011;6804;48.774;9.174;2024-02-21T08:31:29;3.33;;;2.17;;
13463;SDS011;6804;48.774;9.174;2024-02-21T08:33:57;6.20;;;2.47;;
13463;SDS011;6804;48.774;9.174;2024-02-21T08:36:28;5.47;;;2.27;;
13463;SDS011;6804;48.774;9.174;2024-02-21T08:39:00;6.03;;;2.00;;
13463;SDS011;6804;48.774;9.174;2024-02-21T08:41:30;6.30;;;2.10;;
13463;SDS011;6804;48.774;9.174;2024-02-21T08:43:58;4.43;;;2.07;;
13463;SDS011;6804;48.774;9.174;2024-02-21T08:46:26;5.10;;;2.13;;
13463;SDS011;6804;48.774;9.174;2024-02-21T08:48:58;6.90;;;2.50;;
13463;SDS011;6804;48.774;9.174;2024-02-21T08:51:26;3.40;;;1.90;;
13463;SDS011;6804;48.774;9.174;2024-02-21T08:53:58;7.83;;;2.27;;
13463;SDS011;6804;48.774;9.174;2024-02-21T08:56:29;8.83;;;2.30;;
13463;SDS011;6804;48.774;9.174;2024-02-21T08:58:58;5.90;;;2.20;;
13463;SDS011;6804;48.774;9.174;2024-02-21T09:01:27;5.30;;;2.27;;
13463;SDS011;6804;48.774;9.174;2024-02-21T09:03:55;4.50;;;2.00;;
13463;SDS011;6804;48.774;9.174;2024-02-21T09:06:23;7.73;;;2.13;;
13463;SDS011;6804;48.774;9.174;2024-02-21T09:08:50;4.80;;;2.20;;
13463;SDS011;6804;48.774;9.174;2024-02-21T09:11:19;4.80;;;1.80;;
13463;SDS011;6804;48.774;9.174;2024-02-21T09:13:46;4.20;;;2.20;;
13463;SDS011;6804;48.774;9.174;2024-02-21T09:16:19;7.00;;;2.17;;
13463;SDS011;6804;48.774;9.174;2024-02-21T09:18:47;4.20;;;1.90;;
13463;SDS011;6804;48.774;9.174;2024-02-21T09:21:14;5.30;;;2.03;;
13463;SDS011;6804;48.774;9.174;2024-02-21T09:23:42;3.37;;;1.80;;
13463;SDS011;6804;48.774;9.174;2024-02-21T09:26:12;4.50;;;2.17;;
13463;SDS011;6804;48.774;9.174;2024-02-21T09:28:42;8.10;;;2.37;;
13463;SDS011;6804;48.774;9.174;2024-02-21T09:31:11;6.90;;;2.07;;
13463;SDS011;6804;48.774;9.174;2024-02-21T09:33:41;5.83;;;1.73;;
13463;SDS011;6804;48.774;9.174;2024-02-21T09:36:08;5.27;;;1.83;;
13463;SDS011;6804;48.774;9.174;2024-02-21T09:38:39;3.30;;;1.67;;
13463;SDS011;6804;48.774;9.174;2024-02-21T09:41:11;3.47;;;1.80;;
13463;SDS011;6804;48.774;9.174;2024-02-21T09:43:44;4.77;;;1.97;;
13463;SDS011;6804;48.774;9.174;2024-02-21T09:46:16;5.60;;;2.20;;
13463;SDS011;6804;48.774;9.174;2024-02-21T09:48:51;3.57;;;1.87;;
13463;SDS011;6804;48.774;9.174;2024-02-21T09:51:30;3.87;;;1.80;;
13463;SDS011;6804;48.774;9.174;2024-02-21T09:54:01;3.43;;;1.40;;
13463;SDS011;6804;48.774;9.174;2024-02-21T09:56:29;4.47;;;1.93;;
13463;SDS011;6804;48.774;9.174;2024-02-21T09:59:06;4.73;;;1.87;;
13463;SDS011;6804;48.774;9.174;2024-02-21T10:01:37;3.87;;;1.77;;
13463;SDS011;6804;48.774;9.174;2024-02-21T10:04:04;4.13;;;1.67;;
13463;SDS011;6804;48.774;9.174;2024-02-21T10:06:32;5.30;;;1.90;;
13463;SDS011;6804;48.774;9.174;2024-02-21T10:09:02;6.23;;;1.90;;
13463;SDS011;6804;48.774;9.174;2024-02-21T10:11:30;3.23;;;1.60;;
13463;SDS011;6804;48.774;9.174;2024-02-21T10:14:06;6.23;;;1.90;;
13463;SDS011;6804;48.774;9.174;2024-02-21T10:16:34;2.43;;;1.50;;
13463;SDS011;6804;48.774;9.174;2024-02-21T10:19:02;3.23;;;1.60;;
13463;SDS011;6804;48.774;9.174;2024-02-21T10:21:32;3.50;;;1.50;;
13463;SDS011;6804;48.774;9.174;2024-02-21T10:24:00;8.47;;;2.10;;
13463;SDS011;6804;48.774;9.174;2024-02-21T10:26:27;7.97;;;1.90;;
13463;SDS011;6804;48.774;9.174;2024-02-21T10:29:03;3.97;;;1.77;;
13463;SDS011;6804;48.774;9.174;2024-02-21T10:31:32;5.63;;;1.97;;
13463;SDS011;6804;48.774;9.174;2024-02-21T10:34:00;5.73;;;2.10;;
13463;SDS011;6804;48.774;9.174;2024-02-21T10:36:33;5.63;;;1.80;;
13463;SDS011;6804;48.774;9.174;2024-02-21T10:39:00;6.60;;;2.00;;
13463;SDS011;6804;48.774;9.174;2024-02-21T10:41:33;4.57;;;1.97;;
13463;SDS011;6804;48.774;9.174;2024-02-21T10:44:02;2.50;;;1.70;;
13463;SDS011;6804;48.774;9.174;2024-02-21T10:46:35;3.37;;;1.70;;
13463;SDS011;6804;48.774;9.174;2024-02-21T10:49:07;5.97;;;2.10;;
13463;SDS011;6804;48.774;9.174;2024-02-21T10:51:41;4.97;;;2.10;;
13463;SDS011;6804;48.774;9.174;2024-02-21T10:54:13;3.70;;;1.60;;
13463;SDS011;6804;48.774;9.174;2024-02-21T10:56:54;3.67;;;1.80;;
13463;SDS011;6804;48.774;9.174;2024-02-21T10:59:26;5.77;;;1.87;;
13463;SDS011;6804;48.774;9.174;2024-02-21T11:01:55;3.80;;;1.60;;
13463;SDS011;6804;48.774;9.174;2024-02-21T11:04:23;4.67;;;1.73;;
13463;SDS011;6804;48.774;9.174;2024-02-21T11:06:55;3.20;;;1.80;;
13463;SDS011;6804;48.774;9.174;2024-02-21T11:09:29;3.03;;;1.70;;
13463;SDS011;6804;48.774;9.174;2024-02-21T11:11:58;4.33;;;1.63;;
13463;SDS011;6804;48.774;9.174;2024-02-21T11:14:28;3.00;;;1.67;;
13463;SDS011;6804;48.774;9.174;2024-02-21T11:16:57;5.73;;;2.27;;
13463;SDS011;6804;48.774;9.174;2024-02-21T11:19:26;3.67;;;1.90;;
13463;SDS011;6804;48.774;9.174;2024-02-21T11:21:54;5.97;;;2.37;;
13463;SDS011;6804;48.774;9.174;2024-02-21T11:24:26;4.80;;;2.07;;
13463;SDS011;6804;48.774;9.174;2024-02-21T11:26:55;3.67;;;1.67;;
13463;SDS011;6804;48.774;9.174;2024-02-21T11:29:23;3.97;;;2.20;;
13463;SDS011;6804;48.774;9.174;2024-02-21T11:31:52;4.63;;;2.37;;
13463;SDS011;6804;48.774;9.174;2024-02-21T11:34:20;3.43;;;1.73;;
13463;SDS011;6804;48.774;9.174;2024-02-21T11:36:56;5.60;;;2.47;;
13463;SDS011;6804;48.774;9.174;2024-02-21T11:39:27;4.63;;;2.00;;
13463;SDS011;6804;48.774;9.174;2024-02-21T11:42:04;5.70;;;1.97;;
13463;SDS011;6804;48.774;9.174;2024-02-21T11:44:33;7.87;;;2.40;;
13463;SDS011;6804;48.774;9.174;2024-02-21T11:47:04;4.63;;;1.73;;
13463;SDS011;6804;48.774;9.174;2024-02-21T11:49:35;5.03;;;2.03;;
13463;SDS011;6804;48.774;9.174;2024-02-21T11:52:04;4.37;;;1.80;;
13463;SDS011;6804;48.774;9.174;2024-02-21T11:54:34;5.03;;;2.00;;
13463;SDS011;6804;48.774;9.174;2024-02-21T11:57:02;3.43;;;1.70;;
13463;SDS011;6804;48.774;9.174;2024-02-21T11:59:33;3.47;;;1.60;;
13463;SDS011;6804;48.774;9.174;2024-02-21T12:02:04;3.43;;;1.60;;
13463;SDS011;6804;48.774;9.174;2024-02-21T12:04:33;3.20;;;1.23;;
13463;SDS011;6804;48.774;9.174;2024-02-21T12:07:02;4.90;;;2.43;;
13463;SDS011;6804;48.774;9.174;2024-02-21T12:09:30;3.57;;;1.57;;
13463;SDS011;6804;48.774;9.174;2024-02-21T12:11:58;2.10;;;1.37;;
13463;SDS011;6804;48.774;9.174;2024-02-21T12:16:55;3.80;;;1.57;;
13463;SDS011;6804;48.774;9.174;2024-02-21T12:19:25;4.90;;;1.53;;
13463;SDS011;6804;48.774;9.174;2024-02-21T12:21:53;3.07;;;1.50;;
13463;SDS011;6804;48.774;9.174;2024-02-21T12:24:26;3.70;;;1.53;;
13463;SDS011;6804;48.774;9.174;2024-02-21T12:26:54;3.77;;;1.70;;
13463;SDS011;6804;48.774;9.174;2024-02-21T12:29:22;6.50;;;1.70;;
13463;SDS011;6804;48.774;9.174;2024-02-21T12:31:53;2.40;;;1.20;;
13463;SDS011;6804;48.774;9.174;2024-02-21T12:34:21;2.90;;;1.50;;
13463;SDS011;6804;48.774;9.174;2024-02-21T12:36:57;2.00;;;1.30;;
13463;SDS011;6804;48.774;9.174;2024-02-21T12:39:25;1.97;;;1.20;;
13463;SDS011;6804;48.774;9.174;2024-02-21T12:41:54;2.07;;;1.40;;
13463;SDS011;6804;48.774;9.174;2024-02-21T12:44:22;4.30;;;1.43;;
13463;SDS011;6804;48.774;9.174;2024-02-21T12:46:52;3.30;;;1.30;;
13463;SDS011;6804;48.774;9.174;2024-02-21T12:49:20;3.27;;;1.50;;
13463;SDS011;6804;48.774;9.174;2024-02-21T12:51:59;2.30;;;1.57;;
13463;SDS011;6804;48.774;9.174;2024-02-21T12:54:26;4.03;;;2.13;;
13463;SDS011;6804;48.774;9.174;2024-02-21T12:56:55;3.93;;;1.50;;
13463;SDS011;6804;48.774;9.174;2024-02-21T12:59:23;3.93;;;1.50;;
13463;SDS011;6804;48.774;9.174;2024-02-21T13:01:51;2.90;;;1.33;;
13463;SDS011;6804;48.774;9.174;2024-02-21T13:04:18;3.00;;;1.40;;
13463;SDS011;6804;48.774;9.174;2024-02-21T13:06:46;7.27;;;1.57;;
13463;SDS011;6804;48.774;9.174;2024-02-21T13:09:16;2.80;;;1.33;;
13463;SDS011;6804;48.774;9.174;2024-02-21T13:11:44;3.47;;;1.70;;
13463;SDS011;6804;48.774;9.174;2024-02-21T13:14:12;3.00;;;1.30;;
13463;SDS011;6804;48.774;9.174;2024-02-21T13:16:39;3.77;;;1.63;;
13463;SDS011;6804;48.774;9.174;2024-02-21T13:19:10;3.27;;;1.53;;
13463;SDS011;6804;48.774;9.174;2024-02-21T13:21:39;1.83;;;1.23;;
13463;SDS011;6804;48.774;9.174;2024-02-21T13:24:06;2.33;;;1.30;;
13463;SDS011;6804;48.774;9.174;2024-02-21T13:26:36;3.90;;;1.50;;
13463;SDS011;6804;48.774;9.174;2024-02-21T13:29:03;5.13;;;1.60;;
13463;SDS011;6804;48.774;9.174;2024-02-21T13:31:30;3.90;;;1.90;;
13463;SDS011;6804;48.774;9.174;2024-02-21T13:33:58;3.20;;;1.30;;
13463;SDS011;6804;48.774;9.174;2024-02-21T13:36:25;5.20;;;1.30;;
13463;SDS011;6804;48.774;9.174;2024-02-21T13:38:52;1.90;;;1.20;;
13463;SDS011;6804;48.774;9.174;2024-02-21T13:41:20;4.33;;;1.23;;
13463;SDS011;6804;48.774;9.174;2024-02-21T13:43:50;1.83;;;1.07;;
13463;SDS011;6804;48.774;9.174;2024-02-21T13:46:18;3.13;;;0.93;;
13463;SDS011;6804;48.774;9.174;2024-02-21T13:48:49;5.57;;;1.53;;
13463;SDS011;6804;48.774;9.174;2024-02-21T13:51:18;3.73;;;1.30;;
13463;SDS011;6804;48.774;9.174;2024-02-21T13:53:48;1.70;;;1.20;;
13463;SDS011;6804;48.774;9.174;2024-02-21T13:56:19;3.60;;;1.47;;
13463;SDS011;6804;48.774;9.174;2024-02-21T13:58:46;3.43;;;1.50;;
13463;SDS011;6804;48.774;9.174;2024-02-21T14:01:15;3.03;;;1.60;;
13463;SDS011;6804;48.774;9.174;2024-02-21T14:03:43;4.20;;;1.20;;
13463;SDS011;6804;48.774;9.174;2024-02-21T14:06:15;3.10;;;1.33;;
13463;SDS011;6804;48.774;9.174;2024-02-21T14:08:43;2.43;;;1.13;;
13463;SDS011;6804;48.774;9.174;2024-02-21T14:11:11;3.03;;;1.47;;
13463;SDS011;6804;48.774;9.174;2024-02-21T14:13:39;3.07;;;1.40;;
13463;SDS011;6804;48.774;9.174;2024-02-21T14:16:09;3.70;;;1.37;;
13463;SDS011;6804;48.774;9.174;2024-02-21T14:18:39;4.17;;;1.43;;
13463;SDS011;6804;48.774;9.174;2024-02-21T14:21:07;3.73;;;2.23;;
13463;SDS011;6804;48.774;9.174;2024-02-21T14:23:37;3.20;;;1.57;;
13463;SDS011;6804;48.774;9.174;2024-02-21T14:26:04;2.40;;;1.30;;
13463;SDS011;6804;48.774;9.174;2024-02-21T14:28:32;2.60;;;1.10;;
13463;SDS011;6804;48.774;9.174;2024-02-21T14:31:00;2.77;;;1.27;;
13463;SDS011;6804;48.774;9.174;2024-02-21T14:33:28;2.00;;;1.17;;
13463;SDS011;6804;48.774;9.174;2024-02-21T14:35:57;2.70;;;1.40;;
13463;SDS011;6804;48.774;9.174;2024-02-21T14:38:25;1.83;;;1.10;;
13463;SDS011;6804;48.774;9.174;2024-02-21T14:41:00;2.67;;;1.20;;
13463;SDS011;6804;48.774;9.174;2024-02-21T14:43:27;2.33;;;1.60;;
13463;SDS011;6804;48.774;9.174;2024-02-21T14:45:57;1.43;;;0.80;;
13463;SDS011;6804;48.774;9.174;2024-02-21T14:48:32;2.13;;;1.33;;
13463;SDS011;6804;48.774;9.174;2024-02-21T14:51:01;2.03;;;1.80;;
13463;SDS011;6804;48.774;9.174;2024-02-21T14:53:29;3.23;;;1.40;;
13463;SDS011;6804;48.774;9.174;2024-02-21T14:55:57;3.37;;;1.50;;
13463;SDS011;6804;48.774;9.174;2024-02-21T14:58:27;2.87;;;1.40;;
13463;SDS011;6804;48.774;9.174;2024-02-21T15:00:58;3.57;;;1.60;;
13463;SDS011;6804;48.774;9.174;2024-02-21T15:03:25;3.67;;;1.30;;
13463;SDS011;6804;48.774;9.174;2024-02-21T15:05:54;1.93;;;1.30;;
13463;SDS011;6804;48.774;9.174;2024-02-21T15:08:23;2.90;;;1.37;;
13463;SDS011;6804;48.774;9.174;2024-02-21T15:10:53;5.03;;;1.37;;
13463;SDS011;6804;48.774;9.174;2024-02-21T15:13:20;2.60;;;1.80;;
13463;SDS011;6804;48.774;9.174;2024-02-21T15:15:48;3.17;;;1.90;;